sensor_id;sensor_type;location;lat;lon;timestamp;temperature;humidity
81321;DHT22;70785;52.570;5.638;2023-12-20T00:01:56;6.20;76.60
81321;DHT22;70785;52.570;5.638;2023-12-20T00:04:22;6.20;76.50
81321;DHT22;70785;52.570;5.638;2023-12-20T00:06:48;6.20;76.40
81321;DHT22;70785;52.570;5.638;2023-12-20T00:09:14;6.10;76.30
81321;DHT22;70785;52.570;5.638;2023-12-20T00:11:40;6.10;76.50
81321;DHT22;70785;52.570;5.638;2023-12-20T00:14:08;6.00;76.60
81321;DHT22;70785;52.570;5.638;2023-12-20T00:16:34;6.00;76.60
81321;DHT22;70785;52.570;5.638;2023-12-20T00:19:01;6.00;76.50
81321;DHT22;70785;52.570;5.638;2023-12-20T00:21:27;6.00;76.50
81321;DHT22;70785;52.570;5.638;2023-12-20T00:23:53;5.90;76.50
81321;DHT22;70785;52.570;5.638;2023-12-20T00:26:19;5.90;76.60
81321;DHT22;70785;52.570;5.638;2023-12-20T00:28:45;5.90;76.60
81321;DHT22;70785;52.570;5.638;2023-12-20T00:31:11;5.90;76.70
81321;DHT22;70785;52.570;5.638;2023-12-20T00:33:37;5.90;76.50
81321;DHT22;70785;52.570;5.638;2023-12-20T00:36:05;5.90;76.60
81321;DHT22;70785;52.570;5.638;2023-12-20T00:38:32;5.90;76.60
81321;DHT22;70785;52.570;5.638;2023-12-20T00:40:58;6.00;76.40
81321;DHT22;70785;52.570;5.638;2023-12-20T00:43:24;6.00;76.20
81321;DHT22;70785;52.570;5.638;2023-12-20T00:45:50;6.10;76.20
81321;DHT22;70785;52.570;5.638;2023-12-20T00:48:16;6.10;76.20
81321;DHT22;70785;52.570;5.638;2023-12-20T00:50:42;6.10;76.20
81321;DHT22;70785;52.570;5.638;2023-12-20T00:53:08;6.00;76.00
81321;DHT22;70785;52.570;5.638;2023-12-20T00:55:34;6.00;75.70
81321;DHT22;70785;52.570;5.638;2023-12-20T00:58:00;6.00;75.50
81321;DHT22;70785;52.570;5.638;2023-12-20T01:00:27;5.90;75.50
81321;DHT22;70785;52.570;5.638;2023-12-20T01:02:53;5.90;75.60
81321;DHT22;70785;52.570;5.638;2023-12-20T01:05:19;5.80;75.80
81321;DHT22;70785;52.570;5.638;2023-12-20T01:07:45;5.80;75.90
81321;DHT22;70785;52.570;5.638;2023-12-20T01:10:11;5.90;76.10
81321;DHT22;70785;52.570;5.638;2023-12-20T01:12:37;5.90;76.20
81321;DHT22;70785;52.570;5.638;2023-12-20T01:15:04;5.90;76.30
81321;DHT22;70785;52.570;5.638;2023-12-20T01:17:30;5.90;76.40
81321;DHT22;70785;52.570;5.638;2023-12-20T01:19:56;5.90;76.50
81321;DHT22;70785;52.570;5.638;2023-12-20T01:22:22;5.90;76.70
81321;DHT22;70785;52.570;5.638;2023-12-20T01:24:48;6.00;76.70
81321;DHT22;70785;52.570;5.638;2023-12-20T01:27:14;6.00;76.60
81321;DHT22;70785;52.570;5.638;2023-12-20T01:29:40;6.00;76.50
81321;DHT22;70785;52.570;5.638;2023-12-20T01:32:06;6.00;76.50
81321;DHT22;70785;52.570;5.638;2023-12-20T01:34:32;6.00;76.50
81321;DHT22;70785;52.570;5.638;2023-12-20T01:36:59;6.00;76.50
81321;DHT22;70785;52.570;5.638;2023-12-20T01:39:26;6.00;76.70
81321;DHT22;70785;52.570;5.638;2023-12-20T01:41:52;6.00;76.70
81321;DHT22;70785;52.570;5.638;2023-12-20T01:44:18;6.00;76.60
81321;DHT22;70785;52.570;5.638;2023-12-20T01:46:45;6.00;76.60
81321;DHT22;70785;52.570;5.638;2023-12-20T01:49:11;6.10;76.50
81321;DHT22;70785;52.570;5.638;2023-12-20T01:51:38;6.20;76.30
81321;DHT22;70785;52.570;5.638;2023-12-20T01:54:04;6.30;76.20
81321;DHT22;70785;52.570;5.638;2023-12-20T01:56:31;6.30;76.10
81321;DHT22;70785;52.570;5.638;2023-12-20T01:58:58;6.30;76.20
81321;DHT22;70785;52.570;5.638;2023-12-20T02:01:25;6.30;76.10
81321;DHT22;70785;52.570;5.638;2023-12-20T02:03:51;6.40;76.00
81321;DHT22;70785;52.570;5.638;2023-12-20T02:06:18;6.40;76.00
81321;DHT22;70785;52.570;5.638;2023-12-20T02:08:45;6.50;75.80
81321;DHT22;70785;52.570;5.638;2023-12-20T02:11:11;6.50;75.80
81321;DHT22;70785;52.570;5.638;2023-12-20T02:13:37;6.60;75.70
81321;DHT22;70785;52.570;5.638;2023-12-20T02:16:03;6.60;75.50
81321;DHT22;70785;52.570;5.638;2023-12-20T02:18:30;6.60;75.40
81321;DHT22;70785;52.570;5.638;2023-12-20T02:20:56;6.50;75.30
81321;DHT22;70785;52.570;5.638;2023-12-20T02:23:22;6.50;75.30
81321;DHT22;70785;52.570;5.638;2023-12-20T02:25:48;6.50;75.40
81321;DHT22;70785;52.570;5.638;2023-12-20T02:28:14;6.50;75.50
81321;DHT22;70785;52.570;5.638;2023-12-20T02:30:40;6.50;75.40
81321;DHT22;70785;52.570;5.638;2023-12-20T02:33:10;6.50;75.50
81321;DHT22;70785;52.570;5.638;2023-12-20T02:35:37;6.60;75.50
81321;DHT22;70785;52.570;5.638;2023-12-20T02:38:03;6.60;75.60
81321;DHT22;70785;52.570;5.638;2023-12-20T02:40:29;6.60;75.60
81321;DHT22;70785;52.570;5.638;2023-12-20T02:42:55;6.70;75.60
81321;DHT22;70785;52.570;5.638;2023-12-20T02:45:21;6.70;75.50
81321;DHT22;70785;52.570;5.638;2023-12-20T02:47:48;6.70;75.50
81321;DHT22;70785;52.570;5.638;2023-12-20T02:50:14;6.80;75.30
81321;DHT22;70785;52.570;5.638;2023-12-20T02:52:40;6.80;75.30
81321;DHT22;70785;52.570;5.638;2023-12-20T02:55:06;6.80;75.10
81321;DHT22;70785;52.570;5.638;2023-12-20T02:57:32;6.80;75.00
81321;DHT22;70785;52.570;5.638;2023-12-20T02:59:59;6.80;75.00
81321;DHT22;70785;52.570;5.638;2023-12-20T03:02:25;6.70;75.10
81321;DHT22;70785;52.570;5.638;2023-12-20T03:04:51;6.70;75.20
81321;DHT22;70785;52.570;5.638;2023-12-20T03:07:17;6.60;75.20
81321;DHT22;70785;52.570;5.638;2023-12-20T03:09:43;6.60;75.30
81321;DHT22;70785;52.570;5.638;2023-12-20T03:12:09;6.60;75.30
81321;DHT22;70785;52.570;5.638;2023-12-20T03:14:35;6.50;75.50
81321;DHT22;70785;52.570;5.638;2023-12-20T03:17:01;6.50;75.70
81321;DHT22;70785;52.570;5.638;2023-12-20T03:19:27;6.40;75.80
81321;DHT22;70785;52.570;5.638;2023-12-20T03:21:55;6.40;75.80
81321;DHT22;70785;52.570;5.638;2023-12-20T03:24:21;6.40;75.90
81321;DHT22;70785;52.570;5.638;2023-12-20T03:26:47;6.40;75.80
81321;DHT22;70785;52.570;5.638;2023-12-20T03:29:13;6.40;75.60
81321;DHT22;70785;52.570;5.638;2023-12-20T03:31:39;6.40;75.70
81321;DHT22;70785;52.570;5.638;2023-12-20T03:34:05;6.30;75.70
81321;DHT22;70785;52.570;5.638;2023-12-20T03:36:31;6.30;75.70
81321;DHT22;70785;52.570;5.638;2023-12-20T03:38:57;6.20;75.70
81321;DHT22;70785;52.570;5.638;2023-12-20T03:41:23;6.20;75.80
81321;DHT22;70785;52.570;5.638;2023-12-20T03:43:49;6.10;75.90
81321;DHT22;70785;52.570;5.638;2023-12-20T03:46:16;6.10;76.00
81321;DHT22;70785;52.570;5.638;2023-12-20T03:48:42;6.10;75.90
81321;DHT22;70785;52.570;5.638;2023-12-20T03:51:08;6.20;76.00
81321;DHT22;70785;52.570;5.638;2023-12-20T03:53:34;6.20;76.00
81321;DHT22;70785;52.570;5.638;2023-12-20T03:56:00;6.30;75.90
81321;DHT22;70785;52.570;5.638;2023-12-20T03:58:27;6.30;75.90
81321;DHT22;70785;52.570;5.638;2023-12-20T04:00:53;6.20;75.90
81321;DHT22;70785;52.570;5.638;2023-12-20T04:03:19;6.30;75.90
81321;DHT22;70785;52.570;5.638;2023-12-20T04:05:45;6.30;75.80
81321;DHT22;70785;52.570;5.638;2023-12-20T04:08:11;6.30;75.90
81321;DHT22;70785;52.570;5.638;2023-12-20T04:10:37;6.20;76.00
81321;DHT22;70785;52.570;5.638;2023-12-20T04:13:04;6.20;76.00
81321;DHT22;70785;52.570;5.638;2023-12-20T04:15:30;6.20;76.10
81321;DHT22;70785;52.570;5.638;2023-12-20T04:17:56;6.20;76.00
81321;DHT22;70785;52.570;5.638;2023-12-20T04:20:22;6.30;75.90
81321;DHT22;70785;52.570;5.638;2023-12-20T04:22:48;6.30;75.70
81321;DHT22;70785;52.570;5.638;2023-12-20T04:25:15;6.40;75.70
81321;DHT22;70785;52.570;5.638;2023-12-20T04:27:41;6.40;75.50
81321;DHT22;70785;52.570;5.638;2023-12-20T04:30:07;6.50;75.50
81321;DHT22;70785;52.570;5.638;2023-12-20T04:32:33;6.50;75.40
81321;DHT22;70785;52.570;5.638;2023-12-20T04:34:59;6.60;75.30
81321;DHT22;70785;52.570;5.638;2023-12-20T04:37:26;6.60;75.30
81321;DHT22;70785;52.570;5.638;2023-12-20T04:39:52;6.60;75.20
81321;DHT22;70785;52.570;5.638;2023-12-20T04:42:18;6.70;75.10
81321;DHT22;70785;52.570;5.638;2023-12-20T04:44:44;6.70;74.90
81321;DHT22;70785;52.570;5.638;2023-12-20T04:47:10;6.80;74.90
81321;DHT22;70785;52.570;5.638;2023-12-20T04:49:36;6.80;74.80
81321;DHT22;70785;52.570;5.638;2023-12-20T04:52:02;6.80;74.70
81321;DHT22;70785;52.570;5.638;2023-12-20T04:54:29;6.80;74.70
81321;DHT22;70785;52.570;5.638;2023-12-20T04:56:55;6.80;74.50
81321;DHT22;70785;52.570;5.638;2023-12-20T04:59:21;6.80;74.40
81321;DHT22;70785;52.570;5.638;2023-12-20T05:01:47;6.80;74.40
81321;DHT22;70785;52.570;5.638;2023-12-20T05:04:13;6.80;74.40
81321;DHT22;70785;52.570;5.638;2023-12-20T05:06:39;6.90;74.10
81321;DHT22;70785;52.570;5.638;2023-12-20T05:09:05;6.90;74.10
81321;DHT22;70785;52.570;5.638;2023-12-20T05:11:32;6.90;74.10
81321;DHT22;70785;52.570;5.638;2023-12-20T05:13:58;6.90;74.00
81321;DHT22;70785;52.570;5.638;2023-12-20T05:16:24;6.90;74.00
81321;DHT22;70785;52.570;5.638;2023-12-20T05:18:51;6.90;74.10
81321;DHT22;70785;52.570;5.638;2023-12-20T05:21:18;6.90;74.10
81321;DHT22;70785;52.570;5.638;2023-12-20T05:23:44;6.90;74.20
81321;DHT22;70785;52.570;5.638;2023-12-20T05:26:10;6.90;73.90
81321;DHT22;70785;52.570;5.638;2023-12-20T05:28:36;6.90;73.80
81321;DHT22;70785;52.570;5.638;2023-12-20T05:31:03;7.00;73.60
81321;DHT22;70785;52.570;5.638;2023-12-20T05:33:29;7.00;73.60
81321;DHT22;70785;52.570;5.638;2023-12-20T05:35:55;7.00;73.50
81321;DHT22;70785;52.570;5.638;2023-12-20T05:38:21;7.00;73.40
81321;DHT22;70785;52.570;5.638;2023-12-20T05:40:47;7.00;73.20
81321;DHT22;70785;52.570;5.638;2023-12-20T05:43:13;7.00;73.20
81321;DHT22;70785;52.570;5.638;2023-12-20T05:45:39;7.00;73.20
81321;DHT22;70785;52.570;5.638;2023-12-20T05:48:06;7.10;73.10
81321;DHT22;70785;52.570;5.638;2023-12-20T05:50:32;7.10;73.10
81321;DHT22;70785;52.570;5.638;2023-12-20T05:52:58;7.10;73.00
81321;DHT22;70785;52.570;5.638;2023-12-20T05:55:24;7.10;73.00
81321;DHT22;70785;52.570;5.638;2023-12-20T05:57:50;7.10;72.90
81321;DHT22;70785;52.570;5.638;2023-12-20T06:00:16;7.20;73.00
81321;DHT22;70785;52.570;5.638;2023-12-20T06:02:43;7.20;73.00
81321;DHT22;70785;52.570;5.638;2023-12-20T06:05:09;7.20;73.10
81321;DHT22;70785;52.570;5.638;2023-12-20T06:07:35;7.20;73.10
81321;DHT22;70785;52.570;5.638;2023-12-20T06:10:01;7.20;73.00
81321;DHT22;70785;52.570;5.638;2023-12-20T06:12:28;7.20;73.00
81321;DHT22;70785;52.570;5.638;2023-12-20T06:14:54;7.20;73.00
81321;DHT22;70785;52.570;5.638;2023-12-20T06:17:21;7.20;73.00
81321;DHT22;70785;52.570;5.638;2023-12-20T06:19:47;7.20;73.00
81321;DHT22;70785;52.570;5.638;2023-12-20T06:22:15;7.20;73.00
81321;DHT22;70785;52.570;5.638;2023-12-20T06:24:41;7.20;73.10
81321;DHT22;70785;52.570;5.638;2023-12-20T06:27:07;7.20;73.00
81321;DHT22;70785;52.570;5.638;2023-12-20T06:29:33;7.20;73.00
81321;DHT22;70785;52.570;5.638;2023-12-20T06:32:00;7.20;73.00
81321;DHT22;70785;52.570;5.638;2023-12-20T06:34:26;7.20;73.00
81321;DHT22;70785;52.570;5.638;2023-12-20T06:36:52;7.20;73.00
81321;DHT22;70785;52.570;5.638;2023-12-20T06:39:18;7.20;73.00
81321;DHT22;70785;52.570;5.638;2023-12-20T06:41:45;7.30;73.00
81321;DHT22;70785;52.570;5.638;2023-12-20T06:44:11;7.30;73.00
81321;DHT22;70785;52.570;5.638;2023-12-20T06:46:37;7.30;73.00
81321;DHT22;70785;52.570;5.638;2023-12-20T06:49:03;7.40;73.00
81321;DHT22;70785;52.570;5.638;2023-12-20T06:51:30;7.40;72.90
81321;DHT22;70785;52.570;5.638;2023-12-20T06:53:56;7.40;72.80
81321;DHT22;70785;52.570;5.638;2023-12-20T06:56:22;7.40;72.80
81321;DHT22;70785;52.570;5.638;2023-12-20T06:58:49;7.40;72.80
81321;DHT22;70785;52.570;5.638;2023-12-20T07:01:15;7.40;72.90
81321;DHT22;70785;52.570;5.638;2023-12-20T07:03:42;7.40;72.80
81321;DHT22;70785;52.570;5.638;2023-12-20T07:06:08;7.40;72.80
81321;DHT22;70785;52.570;5.638;2023-12-20T07:08:34;7.40;72.80
81321;DHT22;70785;52.570;5.638;2023-12-20T07:11:00;7.40;72.80
81321;DHT22;70785;52.570;5.638;2023-12-20T07:13:26;7.40;72.80
81321;DHT22;70785;52.570;5.638;2023-12-20T07:15:53;7.40;72.80
81321;DHT22;70785;52.570;5.638;2023-12-20T07:18:19;7.40;72.90
81321;DHT22;70785;52.570;5.638;2023-12-20T07:20:45;7.40;72.90
81321;DHT22;70785;52.570;5.638;2023-12-20T07:23:11;7.40;73.00
81321;DHT22;70785;52.570;5.638;2023-12-20T07:25:37;7.40;73.00
81321;DHT22;70785;52.570;5.638;2023-12-20T07:28:03;7.40;72.90
81321;DHT22;70785;52.570;5.638;2023-12-20T07:30:30;7.40;73.00
81321;DHT22;70785;52.570;5.638;2023-12-20T07:32:56;7.40;73.10
81321;DHT22;70785;52.570;5.638;2023-12-20T07:35:23;7.40;73.00
81321;DHT22;70785;52.570;5.638;2023-12-20T07:37:49;7.40;73.10
81321;DHT22;70785;52.570;5.638;2023-12-20T07:40:15;7.40;73.20
81321;DHT22;70785;52.570;5.638;2023-12-20T07:42:43;7.40;73.10
81321;DHT22;70785;52.570;5.638;2023-12-20T07:45:09;7.40;73.10
81321;DHT22;70785;52.570;5.638;2023-12-20T07:47:36;7.40;73.10
81321;DHT22;70785;52.570;5.638;2023-12-20T07:50:03;7.40;73.20
81321;DHT22;70785;52.570;5.638;2023-12-20T07:52:29;7.40;73.20
81321;DHT22;70785;52.570;5.638;2023-12-20T07:54:56;7.40;73.30
81321;DHT22;70785;52.570;5.638;2023-12-20T07:57:22;7.50;73.30
81321;DHT22;70785;52.570;5.638;2023-12-20T07:59:48;7.50;73.20
81321;DHT22;70785;52.570;5.638;2023-12-20T08:02:14;7.50;73.10
81321;DHT22;70785;52.570;5.638;2023-12-20T08:04:40;7.50;73.10
81321;DHT22;70785;52.570;5.638;2023-12-20T08:07:07;7.50;73.20
81321;DHT22;70785;52.570;5.638;2023-12-20T08:09:33;7.50;73.20
81321;DHT22;70785;52.570;5.638;2023-12-20T08:12:00;7.50;73.20
81321;DHT22;70785;52.570;5.638;2023-12-20T08:14:26;7.50;73.20
81321;DHT22;70785;52.570;5.638;2023-12-20T08:16:52;7.50;73.30
81321;DHT22;70785;52.570;5.638;2023-12-20T08:19:18;7.50;73.40
81321;DHT22;70785;52.570;5.638;2023-12-20T08:21:44;7.40;73.50
81321;DHT22;70785;52.570;5.638;2023-12-20T08:24:10;7.50;73.60
81321;DHT22;70785;52.570;5.638;2023-12-20T08:26:37;7.50;73.50
81321;DHT22;70785;52.570;5.638;2023-12-20T08:29:03;7.50;73.60
81321;DHT22;70785;52.570;5.638;2023-12-20T08:31:29;7.50;73.50
81321;DHT22;70785;52.570;5.638;2023-12-20T08:33:55;7.50;73.40
81321;DHT22;70785;52.570;5.638;2023-12-20T08:36:21;7.50;73.40
81321;DHT22;70785;52.570;5.638;2023-12-20T08:38:49;7.50;73.30
81321;DHT22;70785;52.570;5.638;2023-12-20T08:41:16;7.50;73.20
81321;DHT22;70785;52.570;5.638;2023-12-20T08:43:43;7.60;73.30
81321;DHT22;70785;52.570;5.638;2023-12-20T08:46:09;7.60;73.40
81321;DHT22;70785;52.570;5.638;2023-12-20T08:48:35;7.60;73.30
81321;DHT22;70785;52.570;5.638;2023-12-20T08:51:02;7.60;73.30
81321;DHT22;70785;52.570;5.638;2023-12-20T08:53:28;7.60;73.20
81321;DHT22;70785;52.570;5.638;2023-12-20T08:55:54;7.70;73.20
81321;DHT22;70785;52.570;5.638;2023-12-20T08:58:20;7.70;73.00
81321;DHT22;70785;52.570;5.638;2023-12-20T09:00:46;7.80;72.90
81321;DHT22;70785;52.570;5.638;2023-12-20T09:03:12;7.80;72.90
81321;DHT22;70785;52.570;5.638;2023-12-20T09:05:38;7.80;72.90
81321;DHT22;70785;52.570;5.638;2023-12-20T09:08:05;7.80;72.80
81321;DHT22;70785;52.570;5.638;2023-12-20T09:10:31;7.80;72.80
81321;DHT22;70785;52.570;5.638;2023-12-20T09:12:57;7.80;72.90
81321;DHT22;70785;52.570;5.638;2023-12-20T09:15:24;7.80;72.80
81321;DHT22;70785;52.570;5.638;2023-12-20T09:17:51;7.80;72.70
81321;DHT22;70785;52.570;5.638;2023-12-20T09:20:17;7.80;72.70
81321;DHT22;70785;52.570;5.638;2023-12-20T09:22:43;7.80;72.80
81321;DHT22;70785;52.570;5.638;2023-12-20T09:25:10;7.80;72.90
81321;DHT22;70785;52.570;5.638;2023-12-20T09:27:37;7.80;72.90
81321;DHT22;70785;52.570;5.638;2023-12-20T09:30:04;7.80;72.90
81321;DHT22;70785;52.570;5.638;2023-12-20T09:32:31;7.90;73.00
81321;DHT22;70785;52.570;5.638;2023-12-20T09:34:57;8.00;72.90
81321;DHT22;70785;52.570;5.638;2023-12-20T09:37:26;8.00;72.90
81321;DHT22;70785;52.570;5.638;2023-12-20T09:39:53;8.00;72.80
81321;DHT22;70785;52.570;5.638;2023-12-20T09:42:37;8.00;72.60
81321;DHT22;70785;52.570;5.638;2023-12-20T09:45:08;8.00;72.60
81321;DHT22;70785;52.570;5.638;2023-12-20T09:47:35;8.10;72.60
81321;DHT22;70785;52.570;5.638;2023-12-20T09:50:02;8.10;72.50
81321;DHT22;70785;52.570;5.638;2023-12-20T09:52:29;8.20;72.50
81321;DHT22;70785;52.570;5.638;2023-12-20T09:54:57;8.30;72.10
81321;DHT22;70785;52.570;5.638;2023-12-20T09:57:23;8.40;72.10
81321;DHT22;70785;52.570;5.638;2023-12-20T09:59:50;8.40;72.00
81321;DHT22;70785;52.570;5.638;2023-12-20T10:02:18;8.50;71.80
81321;DHT22;70785;52.570;5.638;2023-12-20T10:04:47;8.50;71.70
81321;DHT22;70785;52.570;5.638;2023-12-20T10:07:14;8.50;71.60
81321;DHT22;70785;52.570;5.638;2023-12-20T10:09:40;8.50;71.70
81321;DHT22;70785;52.570;5.638;2023-12-20T10:12:07;8.50;71.80
81321;DHT22;70785;52.570;5.638;2023-12-20T10:14:34;8.40;71.90
81321;DHT22;70785;52.570;5.638;2023-12-20T10:17:04;8.40;71.90
81321;DHT22;70785;52.570;5.638;2023-12-20T10:19:33;8.30;71.80
81321;DHT22;70785;52.570;5.638;2023-12-20T10:22:00;8.20;72.00
81321;DHT22;70785;52.570;5.638;2023-12-20T10:24:28;8.20;72.20
81321;DHT22;70785;52.570;5.638;2023-12-20T10:27:02;8.20;72.40
81321;DHT22;70785;52.570;5.638;2023-12-20T10:29:36;8.10;72.60
81321;DHT22;70785;52.570;5.638;2023-12-20T10:32:23;8.20;72.70
81321;DHT22;70785;52.570;5.638;2023-12-20T10:34:53;8.20;72.60
81321;DHT22;70785;52.570;5.638;2023-12-20T10:37:20;8.30;72.50
81321;DHT22;70785;52.570;5.638;2023-12-20T10:39:50;8.30;72.50
81321;DHT22;70785;52.570;5.638;2023-12-20T10:42:20;8.40;72.50
81321;DHT22;70785;52.570;5.638;2023-12-20T10:44:47;8.40;72.40
81321;DHT22;70785;52.570;5.638;2023-12-20T10:47:13;8.50;72.30
81321;DHT22;70785;52.570;5.638;2023-12-20T10:49:40;8.40;72.30
81321;DHT22;70785;52.570;5.638;2023-12-20T10:52:09;8.40;72.30
81321;DHT22;70785;52.570;5.638;2023-12-20T10:54:35;8.40;72.50
81321;DHT22;70785;52.570;5.638;2023-12-20T10:57:05;8.40;72.50
81321;DHT22;70785;52.570;5.638;2023-12-20T10:59:33;8.40;72.50
81321;DHT22;70785;52.570;5.638;2023-12-20T11:02:03;8.40;72.50
81321;DHT22;70785;52.570;5.638;2023-12-20T11:04:51;8.40;72.50
81321;DHT22;70785;52.570;5.638;2023-12-20T11:07:28;8.40;72.50
81321;DHT22;70785;52.570;5.638;2023-12-20T11:10:29;8.40;72.50
81321;DHT22;70785;52.570;5.638;2023-12-20T11:13:08;8.50;72.40
81321;DHT22;70785;52.570;5.638;2023-12-20T11:15:36;8.50;72.40
81321;DHT22;70785;52.570;5.638;2023-12-20T11:18:04;8.50;72.10
81321;DHT22;70785;52.570;5.638;2023-12-20T11:20:40;8.60;72.10
81321;DHT22;70785;52.570;5.638;2023-12-20T11:23:09;8.60;71.90
81321;DHT22;70785;52.570;5.638;2023-12-20T11:25:49;8.60;71.70
81321;DHT22;70785;52.570;5.638;2023-12-20T11:28:21;8.40;71.50
81321;DHT22;70785;52.570;5.638;2023-12-20T11:30:53;8.10;71.60
81321;DHT22;70785;52.570;5.638;2023-12-20T11:33:24;7.80;72.00
81321;DHT22;70785;52.570;5.638;2023-12-20T11:35:51;7.60;72.30
81321;DHT22;70785;52.570;5.638;2023-12-20T11:38:19;7.50;72.60
81321;DHT22;70785;52.570;5.638;2023-12-20T11:40:48;7.50;72.90
81321;DHT22;70785;52.570;5.638;2023-12-20T11:46:08;7.40;73.20
81321;DHT22;70785;52.570;5.638;2023-12-20T11:48:37;7.30;73.20
81321;DHT22;70785;52.570;5.638;2023-12-20T11:51:09;7.20;73.20
81321;DHT22;70785;52.570;5.638;2023-12-20T11:53:35;7.20;73.30
81321;DHT22;70785;52.570;5.638;2023-12-20T11:56:04;7.30;73.40
81321;DHT22;70785;52.570;5.638;2023-12-20T11:58:30;7.30;73.30
81321;DHT22;70785;52.570;5.638;2023-12-20T12:00:57;7.30;73.20
81321;DHT22;70785;52.570;5.638;2023-12-20T12:03:23;7.20;73.20
81321;DHT22;70785;52.570;5.638;2023-12-20T12:05:50;7.30;73.30
81321;DHT22;70785;52.570;5.638;2023-12-20T12:08:19;7.40;73.40
81321;DHT22;70785;52.570;5.638;2023-12-20T12:10:45;7.40;73.50
81321;DHT22;70785;52.570;5.638;2023-12-20T12:13:11;7.50;73.50
81321;DHT22;70785;52.570;5.638;2023-12-20T12:15:38;7.50;73.50
81321;DHT22;70785;52.570;5.638;2023-12-20T12:18:04;7.50;73.50
81321;DHT22;70785;52.570;5.638;2023-12-20T12:20:31;7.60;73.60
81321;DHT22;70785;52.570;5.638;2023-12-20T12:23:01;7.70;73.70
81321;DHT22;70785;52.570;5.638;2023-12-20T12:25:29;7.80;73.60
81321;DHT22;70785;52.570;5.638;2023-12-20T12:27:58;8.00;73.60
81321;DHT22;70785;52.570;5.638;2023-12-20T12:30:24;8.00;73.50
81321;DHT22;70785;52.570;5.638;2023-12-20T12:32:51;8.10;73.40
81321;DHT22;70785;52.570;5.638;2023-12-20T12:35:18;8.10;73.30
81321;DHT22;70785;52.570;5.638;2023-12-20T12:37:45;8.20;73.30
81321;DHT22;70785;52.570;5.638;2023-12-20T12:40:15;8.20;73.30
81321;DHT22;70785;52.570;5.638;2023-12-20T12:42:43;8.20;73.20
81321;DHT22;70785;52.570;5.638;2023-12-20T12:45:10;8.20;73.20
81321;DHT22;70785;52.570;5.638;2023-12-20T12:47:40;8.30;73.00
81321;DHT22;70785;52.570;5.638;2023-12-20T12:50:06;8.30;73.00
81321;DHT22;70785;52.570;5.638;2023-12-20T12:52:32;8.30;73.00
81321;DHT22;70785;52.570;5.638;2023-12-20T12:54:58;8.30;73.10
81321;DHT22;70785;52.570;5.638;2023-12-20T12:57:24;8.30;73.10
81321;DHT22;70785;52.570;5.638;2023-12-20T12:59:51;8.20;73.20
81321;DHT22;70785;52.570;5.638;2023-12-20T13:02:17;8.20;73.10
81321;DHT22;70785;52.570;5.638;2023-12-20T13:04:44;8.20;73.20
81321;DHT22;70785;52.570;5.638;2023-12-20T13:07:10;8.10;73.40
81321;DHT22;70785;52.570;5.638;2023-12-20T13:09:37;8.10;73.50
81321;DHT22;70785;52.570;5.638;2023-12-20T13:12:04;8.00;73.60
81321;DHT22;70785;52.570;5.638;2023-12-20T13:14:34;8.00;73.70
81321;DHT22;70785;52.570;5.638;2023-12-20T13:17:03;8.00;73.70
81321;DHT22;70785;52.570;5.638;2023-12-20T13:19:30;8.00;73.80
81321;DHT22;70785;52.570;5.638;2023-12-20T13:21:56;8.00;73.60
81321;DHT22;70785;52.570;5.638;2023-12-20T13:24:24;8.00;73.50
81321;DHT22;70785;52.570;5.638;2023-12-20T13:26:50;8.00;73.70
81321;DHT22;70785;52.570;5.638;2023-12-20T13:29:16;8.10;73.60
81321;DHT22;70785;52.570;5.638;2023-12-20T13:31:42;8.00;73.60
81321;DHT22;70785;52.570;5.638;2023-12-20T13:34:08;8.00;73.60
81321;DHT22;70785;52.570;5.638;2023-12-20T13:36:34;8.00;73.60
81321;DHT22;70785;52.570;5.638;2023-12-20T13:39:03;8.00;73.40
81321;DHT22;70785;52.570;5.638;2023-12-20T13:41:31;8.00;73.40
81321;DHT22;70785;52.570;5.638;2023-12-20T13:43:57;8.00;73.40
81321;DHT22;70785;52.570;5.638;2023-12-20T13:46:23;8.00;73.40
81321;DHT22;70785;52.570;5.638;2023-12-20T13:48:49;8.00;73.40
81321;DHT22;70785;52.570;5.638;2023-12-20T13:51:16;8.00;73.30
81321;DHT22;70785;52.570;5.638;2023-12-20T13:53:42;8.00;73.30
81321;DHT22;70785;52.570;5.638;2023-12-20T13:56:08;8.00;73.30
81321;DHT22;70785;52.570;5.638;2023-12-20T13:58:34;8.00;73.20
81321;DHT22;70785;52.570;5.638;2023-12-20T14:01:00;8.00;73.20
81321;DHT22;70785;52.570;5.638;2023-12-20T14:03:26;8.00;73.30
81321;DHT22;70785;52.570;5.638;2023-12-20T14:05:52;8.00;73.20
81321;DHT22;70785;52.570;5.638;2023-12-20T14:08:18;8.00;73.20
81321;DHT22;70785;52.570;5.638;2023-12-20T14:10:44;8.00;73.20
81321;DHT22;70785;52.570;5.638;2023-12-20T14:13:10;8.00;73.20
81321;DHT22;70785;52.570;5.638;2023-12-20T14:15:36;8.00;73.20
81321;DHT22;70785;52.570;5.638;2023-12-20T14:18:05;8.00;73.20
81321;DHT22;70785;52.570;5.638;2023-12-20T14:20:32;8.00;73.20
81321;DHT22;70785;52.570;5.638;2023-12-20T14:23:01;8.00;73.20
81321;DHT22;70785;52.570;5.638;2023-12-20T14:25:27;8.00;73.20
81321;DHT22;70785;52.570;5.638;2023-12-20T14:27:53;8.00;73.20
81321;DHT22;70785;52.570;5.638;2023-12-20T14:30:20;8.00;73.30
81321;DHT22;70785;52.570;5.638;2023-12-20T14:32:46;8.00;73.40
81321;DHT22;70785;52.570;5.638;2023-12-20T14:35:14;8.00;73.50
81321;DHT22;70785;52.570;5.638;2023-12-20T14:37:40;8.00;73.50
81321;DHT22;70785;52.570;5.638;2023-12-20T14:40:07;8.00;73.60
81321;DHT22;70785;52.570;5.638;2023-12-20T14:42:36;8.00;73.60
81321;DHT22;70785;52.570;5.638;2023-12-20T14:45:03;8.00;73.60
81321;DHT22;70785;52.570;5.638;2023-12-20T14:47:29;8.00;73.70
81321;DHT22;70785;52.570;5.638;2023-12-20T14:49:55;8.00;73.70
81321;DHT22;70785;52.570;5.638;2023-12-20T14:52:21;8.00;73.60
81321;DHT22;70785;52.570;5.638;2023-12-20T14:54:49;8.00;73.60
81321;DHT22;70785;52.570;5.638;2023-12-20T14:57:15;8.00;73.50
81321;DHT22;70785;52.570;5.638;2023-12-20T14:59:41;8.00;73.40
81321;DHT22;70785;52.570;5.638;2023-12-20T15:02:09;8.00;73.40
81321;DHT22;70785;52.570;5.638;2023-12-20T15:04:35;8.00;73.40
81321;DHT22;70785;52.570;5.638;2023-12-20T15:07:01;8.00;73.50
81321;DHT22;70785;52.570;5.638;2023-12-20T15:09:28;8.00;73.50
81321;DHT22;70785;52.570;5.638;2023-12-20T15:11:55;8.00;73.60
81321;DHT22;70785;52.570;5.638;2023-12-20T15:14:21;8.00;73.60
81321;DHT22;70785;52.570;5.638;2023-12-20T15:16:47;8.00;73.60
81321;DHT22;70785;52.570;5.638;2023-12-20T15:19:15;8.00;73.70
81321;DHT22;70785;52.570;5.638;2023-12-20T15:21:42;8.10;73.70
81321;DHT22;70785;52.570;5.638;2023-12-20T15:24:11;8.10;73.70
81321;DHT22;70785;52.570;5.638;2023-12-20T15:26:43;8.10;73.70
81321;DHT22;70785;52.570;5.638;2023-12-20T15:29:10;8.10;73.80
81321;DHT22;70785;52.570;5.638;2023-12-20T15:31:48;8.10;73.80
81321;DHT22;70785;52.570;5.638;2023-12-20T15:34:14;8.10;73.90
81321;DHT22;70785;52.570;5.638;2023-12-20T15:36:42;8.10;73.90
81321;DHT22;70785;52.570;5.638;2023-12-20T15:39:08;8.10;73.90
81321;DHT22;70785;52.570;5.638;2023-12-20T15:41:34;8.10;73.90
81321;DHT22;70785;52.570;5.638;2023-12-20T15:44:01;8.10;73.90
81321;DHT22;70785;52.570;5.638;2023-12-20T15:46:27;8.10;73.90